sensor_id;sensor_type;location;lat;lon;timestamp;P1;durP1;ratioP1;P2;durP2;ratioP2
6735;SDS011;3405;50.576;12.364;2023-04-29T00:01:34;1.75;;;1.48;;
6735;SDS011;3405;50.576;12.364;2023-04-29T00:04:00;1.73;;;1.63;;
6735;SDS011;3405;50.576;12.364;2023-04-29T00:06:26;1.75;;;1.40;;
6735;SDS011;3405;50.576;12.364;2023-04-29T00:08:52;2.03;;;1.60;;
6735;SDS011;3405;50.576;12.364;2023-04-29T00:11:18;2.47;;;1.65;;
6735;SDS011;3405;50.576;12.364;2023-04-29T00:13:44;2.05;;;1.50;;
6735;SDS011;3405;50.576;12.364;2023-04-29T00:16:10;1.98;;;1.52;;
6735;SDS011;3405;50.576;12.364;2023-04-29T00:18:36;2.50;;;1.73;;
6735;SDS011;3405;50.576;12.364;2023-04-29T00:21:02;1.70;;;1.40;;
6735;SDS011;3405;50.576;12.364;2023-04-29T00:23:34;1.50;;;1.40;;
6735;SDS011;3405;50.576;12.364;2023-04-29T00:26:00;1.60;;;1.50;;
6735;SDS011;3405;50.576;12.364;2023-04-29T00:28:26;1.75;;;1.60;;
6735;SDS011;3405;50.576;12.364;2023-04-29T00:30:52;1.40;;;1.30;;
6735;SDS011;3405;50.576;12.364;2023-04-29T00:33:18;3.13;;;1.45;;
6735;SDS011;3405;50.576;12.364;2023-04-29T00:35:44;2.00;;;1.50;;
6735;SDS011;3405;50.576;12.364;2023-04-29T00:38:10;1.60;;;1.50;;
6735;SDS011;3405;50.576;12.364;2023-04-29T00:40:36;1.30;;;1.20;;
6735;SDS011;3405;50.576;12.364;2023-04-29T00:43:03;1.75;;;1.52;;
6735;SDS011;3405;50.576;12.364;2023-04-29T00:45:29;1.67;;;1.42;;
6735;SDS011;3405;50.576;12.364;2023-04-29T00:47:55;1.95;;;1.60;;
6735;SDS011;3405;50.576;12.364;2023-04-29T00:50:21;1.50;;;1.40;;
6735;SDS011;3405;50.576;12.364;2023-04-29T00:52:47;4.25;;;1.30;;
6735;SDS011;3405;50.576;12.364;2023-04-29T00:55:13;1.60;;;1.50;;
6735;SDS011;3405;50.576;12.364;2023-04-29T00:57:39;1.92;;;1.60;;
6735;SDS011;3405;50.576;12.364;2023-04-29T01:00:06;1.80;;;1.50;;
6735;SDS011;3405;50.576;12.364;2023-04-29T01:02:33;1.45;;;1.27;;
6735;SDS011;3405;50.576;12.364;2023-04-29T01:05:00;1.73;;;1.63;;
6735;SDS011;3405;50.576;12.364;2023-04-29T01:07:29;1.73;;;1.38;;
6735;SDS011;3405;50.576;12.364;2023-04-29T01:10:09;1.40;;;1.30;;
6735;SDS011;3405;50.576;12.364;2023-04-29T01:15:20;1.52;;;1.40;;
6735;SDS011;3405;50.576;12.364;2023-04-29T01:17:50;2.05;;;1.48;;
6735;SDS011;3405;50.576;12.364;2023-04-29T01:20:18;1.38;;;1.27;;
6735;SDS011;3405;50.576;12.364;2023-04-29T01:22:46;1.45;;;1.35;;
6735;SDS011;3405;50.576;12.364;2023-04-29T01:25:12;1.42;;;1.33;;
6735;SDS011;3405;50.576;12.364;2023-04-29T01:27:41;1.58;;;1.48;;
6735;SDS011;3405;50.576;12.364;2023-04-29T01:32:50;1.50;;;1.40;;
6735;SDS011;3405;50.576;12.364;2023-04-29T01:35:29;1.40;;;1.30;;
6735;SDS011;3405;50.576;12.364;2023-04-29T01:40:37;1.60;;;1.50;;
6735;SDS011;3405;50.576;12.364;2023-04-29T01:43:07;1.50;;;1.40;;
6735;SDS011;3405;50.576;12.364;2023-04-29T01:45:35;1.35;;;1.25;;
6735;SDS011;3405;50.576;12.364;2023-04-29T01:48:05;1.55;;;1.40;;
6735;SDS011;3405;50.576;12.364;2023-04-29T01:50:31;1.40;;;1.30;;
6735;SDS011;3405;50.576;12.364;2023-04-29T01:52:57;1.50;;;1.38;;
6735;SDS011;3405;50.576;12.364;2023-04-29T01:55:23;1.90;;;1.80;;
6735;SDS011;3405;50.576;12.364;2023-04-29T01:57:49;1.25;;;1.15;;
6735;SDS011;3405;50.576;12.364;2023-04-29T02:00:15;1.92;;;1.30;;
6735;SDS011;3405;50.576;12.364;2023-04-29T02:02:42;1.40;;;1.30;;
6735;SDS011;3405;50.576;12.364;2023-04-29T02:05:07;1.45;;;1.33;;
6735;SDS011;3405;50.576;12.364;2023-04-29T02:07:33;1.50;;;1.40;;
6735;SDS011;3405;50.576;12.364;2023-04-29T02:09:59;1.70;;;1.40;;
6735;SDS011;3405;50.576;12.364;2023-04-29T02:12:25;1.13;;;1.02;;
6735;SDS011;3405;50.576;12.364;2023-04-29T02:14:51;1.35;;;1.25;;
6735;SDS011;3405;50.576;12.364;2023-04-29T02:17:18;1.30;;;1.17;;
6735;SDS011;3405;50.576;12.364;2023-04-29T02:19:44;1.02;;;1.00;;
6735;SDS011;3405;50.576;12.364;2023-04-29T02:22:09;1.63;;;1.30;;
6735;SDS011;3405;50.576;12.364;2023-04-29T02:24:36;1.38;;;1.27;;
6735;SDS011;3405;50.576;12.364;2023-04-29T02:27:03;1.50;;;1.40;;
6735;SDS011;3405;50.576;12.364;2023-04-29T02:29:31;1.20;;;1.20;;
6735;SDS011;3405;50.576;12.364;2023-04-29T02:31:57;1.45;;;1.35;;
6735;SDS011;3405;50.576;12.364;2023-04-29T02:34:23;1.10;;;1.10;;
6735;SDS011;3405;50.576;12.364;2023-04-29T02:36:49;1.13;;;1.10;;
6735;SDS011;3405;50.576;12.364;2023-04-29T02:39:15;2.38;;;1.10;;
6735;SDS011;3405;50.576;12.364;2023-04-29T02:41:41;1.55;;;1.20;;
6735;SDS011;3405;50.576;12.364;2023-04-29T02:44:07;1.27;;;1.23;;
6735;SDS011;3405;50.576;12.364;2023-04-29T02:46:33;1.48;;;1.38;;
6735;SDS011;3405;50.576;12.364;2023-04-29T02:49:00;1.30;;;1.20;;
6735;SDS011;3405;50.576;12.364;2023-04-29T02:51:26;1.25;;;1.17;;
6735;SDS011;3405;50.576;12.364;2023-04-29T02:53:52;1.20;;;1.10;;
6735;SDS011;3405;50.576;12.364;2023-04-29T02:56:19;1.23;;;1.13;;
6735;SDS011;3405;50.576;12.364;2023-04-29T02:58:45;1.17;;;1.08;;
6735;SDS011;3405;50.576;12.364;2023-04-29T03:01:11;1.10;;;1.10;;
6735;SDS011;3405;50.576;12.364;2023-04-29T03:03:37;1.40;;;1.30;;
6735;SDS011;3405;50.576;12.364;2023-04-29T03:06:03;0.93;;;0.93;;
6735;SDS011;3405;50.576;12.364;2023-04-29T03:08:29;1.00;;;1.00;;
6735;SDS011;3405;50.576;12.364;2023-04-29T03:10:55;1.00;;;1.00;;
6735;SDS011;3405;50.576;12.364;2023-04-29T03:13:21;1.40;;;1.20;;
6735;SDS011;3405;50.576;12.364;2023-04-29T03:15:47;1.20;;;1.10;;
6735;SDS011;3405;50.576;12.364;2023-04-29T03:18:13;1.20;;;1.20;;
6735;SDS011;3405;50.576;12.364;2023-04-29T03:20:39;1.40;;;1.05;;
6735;SDS011;3405;50.576;12.364;2023-04-29T03:23:05;1.38;;;1.27;;
6735;SDS011;3405;50.576;12.364;2023-04-29T03:25:30;1.00;;;1.00;;
6735;SDS011;3405;50.576;12.364;2023-04-29T03:27:56;1.00;;;1.00;;
6735;SDS011;3405;50.576;12.364;2023-04-29T03:30:22;0.90;;;0.90;;
6735;SDS011;3405;50.576;12.364;2023-04-29T03:32:48;1.17;;;1.10;;
6735;SDS011;3405;50.576;12.364;2023-04-29T03:35:14;1.10;;;1.10;;
6735;SDS011;3405;50.576;12.364;2023-04-29T03:37:40;1.08;;;1.08;;
6735;SDS011;3405;50.576;12.364;2023-04-29T03:40:08;0.90;;;0.90;;
6735;SDS011;3405;50.576;12.364;2023-04-29T03:42:35;1.08;;;1.08;;
6735;SDS011;3405;50.576;12.364;2023-04-29T03:45:01;1.20;;;1.10;;
6735;SDS011;3405;50.576;12.364;2023-04-29T03:47:27;0.98;;;0.98;;
6735;SDS011;3405;50.576;12.364;2023-04-29T03:49:53;1.20;;;1.10;;
6735;SDS011;3405;50.576;12.364;2023-04-29T03:52:18;1.00;;;1.00;;
6735;SDS011;3405;50.576;12.364;2023-04-29T03:54:44;1.20;;;1.10;;
6735;SDS011;3405;50.576;12.364;2023-04-29T03:57:10;1.25;;;1.15;;
6735;SDS011;3405;50.576;12.364;2023-04-29T03:59:36;1.13;;;1.13;;
6735;SDS011;3405;50.576;12.364;2023-04-29T04:02:02;1.23;;;1.13;;
6735;SDS011;3405;50.576;12.364;2023-04-29T04:04:28;1.00;;;1.00;;
6735;SDS011;3405;50.576;12.364;2023-04-29T04:06:54;1.40;;;1.30;;
6735;SDS011;3405;50.576;12.364;2023-04-29T04:09:20;0.98;;;0.98;;
6735;SDS011;3405;50.576;12.364;2023-04-29T04:11:46;1.15;;;1.05;;
6735;SDS011;3405;50.576;12.364;2023-04-29T04:14:12;1.02;;;1.02;;
6735;SDS011;3405;50.576;12.364;2023-04-29T04:16:38;0.95;;;0.95;;
6735;SDS011;3405;50.576;12.364;2023-04-29T04:19:04;0.90;;;0.90;;
6735;SDS011;3405;50.576;12.364;2023-04-29T04:21:30;1.27;;;1.17;;
6735;SDS011;3405;50.576;12.364;2023-04-29T04:23:55;0.90;;;0.90;;
6735;SDS011;3405;50.576;12.364;2023-04-29T04:26:22;1.13;;;1.02;;
6735;SDS011;3405;50.576;12.364;2023-04-29T04:28:48;1.10;;;1.00;;
6735;SDS011;3405;50.576;12.364;2023-04-29T04:31:14;1.17;;;1.10;;
6735;SDS011;3405;50.576;12.364;2023-04-29T04:33:40;1.23;;;1.17;;
6735;SDS011;3405;50.576;12.364;2023-04-29T04:36:06;1.20;;;1.20;;
6735;SDS011;3405;50.576;12.364;2023-04-29T04:38:32;1.17;;;1.10;;
6735;SDS011;3405;50.576;12.364;2023-04-29T04:40:58;0.90;;;0.90;;
6735;SDS011;3405;50.576;12.364;2023-04-29T04:43:24;1.75;;;1.00;;
6735;SDS011;3405;50.576;12.364;2023-04-29T04:45:50;2.45;;;1.00;;
6735;SDS011;3405;50.576;12.364;2023-04-29T04:48:16;2.90;;;1.25;;
6735;SDS011;3405;50.576;12.364;2023-04-29T04:50:42;4.03;;;1.50;;
6735;SDS011;3405;50.576;12.364;2023-04-29T04:53:08;6.63;;;1.58;;
6735;SDS011;3405;50.576;12.364;2023-04-29T04:55:34;2.00;;;1.20;;
6735;SDS011;3405;50.576;12.364;2023-04-29T04:58:01;1.58;;;1.15;;
6735;SDS011;3405;50.576;12.364;2023-04-29T05:00:27;1.30;;;1.20;;
6735;SDS011;3405;50.576;12.364;2023-04-29T05:02:52;1.67;;;1.30;;
6735;SDS011;3405;50.576;12.364;2023-04-29T05:05:18;4.07;;;1.73;;
6735;SDS011;3405;50.576;12.364;2023-04-29T05:07:44;1.20;;;1.10;;
6735;SDS011;3405;50.576;12.364;2023-04-29T05:10:11;3.55;;;1.20;;
6735;SDS011;3405;50.576;12.364;2023-04-29T05:12:37;1.80;;;1.20;;
6735;SDS011;3405;50.576;12.364;2023-04-29T05:15:03;3.10;;;1.10;;
6735;SDS011;3405;50.576;12.364;2023-04-29T05:17:29;1.40;;;1.15;;
6735;SDS011;3405;50.576;12.364;2023-04-29T05:19:55;2.40;;;1.10;;
6735;SDS011;3405;50.576;12.364;2023-04-29T05:22:21;0.90;;;0.90;;
6735;SDS011;3405;50.576;12.364;2023-04-29T05:24:47;2.08;;;1.20;;
6735;SDS011;3405;50.576;12.364;2023-04-29T05:27:13;1.20;;;1.10;;
6735;SDS011;3405;50.576;12.364;2023-04-29T05:29:39;1.33;;;1.23;;
6735;SDS011;3405;50.576;12.364;2023-04-29T05:32:05;1.75;;;1.00;;
6735;SDS011;3405;50.576;12.364;2023-04-29T05:34:31;2.50;;;1.20;;
6735;SDS011;3405;50.576;12.364;2023-04-29T05:36:57;1.48;;;0.90;;
6735;SDS011;3405;50.576;12.364;2023-04-29T05:39:23;0.90;;;0.90;;
6735;SDS011;3405;50.576;12.364;2023-04-29T05:41:50;4.25;;;0.90;;
6735;SDS011;3405;50.576;12.364;2023-04-29T05:44:16;2.10;;;1.10;;
6735;SDS011;3405;50.576;12.364;2023-04-29T05:46:42;1.10;;;0.93;;
6735;SDS011;3405;50.576;12.364;2023-04-29T05:49:08;2.55;;;0.98;;
6735;SDS011;3405;50.576;12.364;2023-04-29T05:51:34;1.60;;;1.13;;
6735;SDS011;3405;50.576;12.364;2023-04-29T05:54:00;1.13;;;1.02;;
6735;SDS011;3405;50.576;12.364;2023-04-29T05:56:26;1.60;;;1.05;;
6735;SDS011;3405;50.576;12.364;2023-04-29T05:58:52;1.27;;;1.00;;
6735;SDS011;3405;50.576;12.364;2023-04-29T06:01:18;1.65;;;1.00;;
6735;SDS011;3405;50.576;12.364;2023-04-29T06:03:44;0.98;;;0.90;;
6735;SDS011;3405;50.576;12.364;2023-04-29T06:06:09;2.67;;;1.10;;
6735;SDS011;3405;50.576;12.364;2023-04-29T06:08:36;1.42;;;1.10;;
6735;SDS011;3405;50.576;12.364;2023-04-29T06:11:02;0.80;;;0.80;;
6735;SDS011;3405;50.576;12.364;2023-04-29T06:13:29;1.00;;;1.00;;
6735;SDS011;3405;50.576;12.364;2023-04-29T06:15:55;1.00;;;0.98;;
6735;SDS011;3405;50.576;12.364;2023-04-29T06:18:21;1.77;;;0.70;;
6735;SDS011;3405;50.576;12.364;2023-04-29T06:20:47;2.58;;;0.82;;
6735;SDS011;3405;50.576;12.364;2023-04-29T06:23:13;0.98;;;0.90;;
6735;SDS011;3405;50.576;12.364;2023-04-29T06:25:39;1.00;;;1.00;;
6735;SDS011;3405;50.576;12.364;2023-04-29T06:28:05;0.90;;;0.90;;
6735;SDS011;3405;50.576;12.364;2023-04-29T06:30:32;1.10;;;1.00;;
6735;SDS011;3405;50.576;12.364;2023-04-29T06:32:58;1.65;;;1.00;;
6735;SDS011;3405;50.576;12.364;2023-04-29T06:35:24;0.80;;;0.80;;
6735;SDS011;3405;50.576;12.364;2023-04-29T06:37:50;1.52;;;1.35;;
6735;SDS011;3405;50.576;12.364;2023-04-29T06:40:16;1.85;;;1.00;;
6735;SDS011;3405;50.576;12.364;2023-04-29T06:42:42;0.90;;;0.90;;
6735;SDS011;3405;50.576;12.364;2023-04-29T06:45:08;1.20;;;0.80;;
6735;SDS011;3405;50.576;12.364;2023-04-29T06:47:34;1.35;;;0.80;;
6735;SDS011;3405;50.576;12.364;2023-04-29T06:50:00;0.80;;;0.80;;
6735;SDS011;3405;50.576;12.364;2023-04-29T06:52:27;1.25;;;1.13;;
6735;SDS011;3405;50.576;12.364;2023-04-29T06:54:53;1.23;;;1.13;;
6735;SDS011;3405;50.576;12.364;2023-04-29T06:57:19;0.90;;;0.90;;
6735;SDS011;3405;50.576;12.364;2023-04-29T06:59:45;0.63;;;0.63;;
6735;SDS011;3405;50.576;12.364;2023-04-29T07:02:11;1.00;;;1.00;;
6735;SDS011;3405;50.576;12.364;2023-04-29T07:04:37;1.00;;;1.00;;
6735;SDS011;3405;50.576;12.364;2023-04-29T07:07:03;1.13;;;1.02;;
6735;SDS011;3405;50.576;12.364;2023-04-29T07:09:29;1.25;;;0.80;;
6735;SDS011;3405;50.576;12.364;2023-04-29T07:11:55;0.90;;;0.90;;
6735;SDS011;3405;50.576;12.364;2023-04-29T07:14:21;1.17;;;1.05;;
6735;SDS011;3405;50.576;12.364;2023-04-29T07:16:51;0.90;;;0.90;;
6735;SDS011;3405;50.576;12.364;2023-04-29T07:19:17;0.80;;;0.80;;
6735;SDS011;3405;50.576;12.364;2023-04-29T07:21:43;0.98;;;0.90;;
6735;SDS011;3405;50.576;12.364;2023-04-29T07:24:09;0.73;;;0.68;;
6735;SDS011;3405;50.576;12.364;2023-04-29T07:26:35;0.98;;;0.70;;
6735;SDS011;3405;50.576;12.364;2023-04-29T07:29:01;1.05;;;1.00;;
6735;SDS011;3405;50.576;12.364;2023-04-29T07:31:27;0.75;;;0.75;;
6735;SDS011;3405;50.576;12.364;2023-04-29T07:33:53;2.00;;;0.88;;
6735;SDS011;3405;50.576;12.364;2023-04-29T07:36:19;0.90;;;0.90;;
6735;SDS011;3405;50.576;12.364;2023-04-29T07:38:45;1.00;;;1.00;;
6735;SDS011;3405;50.576;12.364;2023-04-29T07:41:11;0.88;;;0.88;;
6735;SDS011;3405;50.576;12.364;2023-04-29T07:43:37;0.85;;;0.85;;
6735;SDS011;3405;50.576;12.364;2023-04-29T07:46:03;0.75;;;0.75;;
6735;SDS011;3405;50.576;12.364;2023-04-29T07:48:30;0.80;;;0.80;;
6735;SDS011;3405;50.576;12.364;2023-04-29T07:50:55;0.60;;;0.60;;
6735;SDS011;3405;50.576;12.364;2023-04-29T07:53:21;0.70;;;0.70;;
6735;SDS011;3405;50.576;12.364;2023-04-29T07:55:47;0.82;;;0.82;;
6735;SDS011;3405;50.576;12.364;2023-04-29T07:58:13;1.80;;;0.90;;
6735;SDS011;3405;50.576;12.364;2023-04-29T08:00:39;0.80;;;0.80;;
6735;SDS011;3405;50.576;12.364;2023-04-29T08:03:05;0.95;;;0.95;;
6735;SDS011;3405;50.576;12.364;2023-04-29T08:05:31;1.00;;;0.80;;
6735;SDS011;3405;50.576;12.364;2023-04-29T08:07:57;0.65;;;0.65;;
6735;SDS011;3405;50.576;12.364;2023-04-29T08:10:23;0.85;;;0.85;;
6735;SDS011;3405;50.576;12.364;2023-04-29T08:12:50;1.00;;;0.90;;
6735;SDS011;3405;50.576;12.364;2023-04-29T08:15:15;1.98;;;1.00;;
6735;SDS011;3405;50.576;12.364;2023-04-29T08:17:42;2.22;;;1.10;;
6735;SDS011;3405;50.576;12.364;2023-04-29T08:20:08;2.13;;;1.63;;
6735;SDS011;3405;50.576;12.364;2023-04-29T08:22:34;1.70;;;1.60;;
6735;SDS011;3405;50.576;12.364;2023-04-29T08:25:00;4.35;;;1.60;;
6735;SDS011;3405;50.576;12.364;2023-04-29T08:27:27;2.42;;;1.17;;
6735;SDS011;3405;50.576;12.364;2023-04-29T08:29:53;3.28;;;1.52;;
6735;SDS011;3405;50.576;12.364;2023-04-29T08:32:20;2.65;;;1.40;;
6735;SDS011;3405;50.576;12.364;2023-04-29T08:34:46;3.20;;;1.45;;
6735;SDS011;3405;50.576;12.364;2023-04-29T08:37:12;1.88;;;1.30;;
6735;SDS011;3405;50.576;12.364;2023-04-29T08:39:39;3.75;;;1.35;;
6735;SDS011;3405;50.576;12.364;2023-04-29T08:42:07;1.88;;;1.27;;
6735;SDS011;3405;50.576;12.364;2023-04-29T08:44:34;2.55;;;1.35;;
6735;SDS011;3405;50.576;12.364;2023-04-29T08:47:00;1.40;;;1.30;;
6735;SDS011;3405;50.576;12.364;2023-04-29T08:49:27;1.55;;;1.30;;
6735;SDS011;3405;50.576;12.364;2023-04-29T08:51:53;2.45;;;1.40;;
6735;SDS011;3405;50.576;12.364;2023-04-29T08:54:19;2.47;;;1.60;;
6735;SDS011;3405;50.576;12.364;2023-04-29T08:56:45;2.28;;;1.48;;
6735;SDS011;3405;50.576;12.364;2023-04-29T08:59:14;3.25;;;1.60;;
6735;SDS011;3405;50.576;12.364;2023-04-29T09:01:41;8.95;;;2.90;;
6735;SDS011;3405;50.576;12.364;2023-04-29T09:04:09;5.93;;;2.00;;
6735;SDS011;3405;50.576;12.364;2023-04-29T09:06:37;4.47;;;1.92;;
6735;SDS011;3405;50.576;12.364;2023-04-29T09:09:02;5.63;;;1.73;;
6735;SDS011;3405;50.576;12.364;2023-04-29T09:11:29;4.68;;;1.83;;
6735;SDS011;3405;50.576;12.364;2023-04-29T09:13:59;4.95;;;1.83;;
6735;SDS011;3405;50.576;12.364;2023-04-29T09:16:25;5.70;;;1.60;;
6735;SDS011;3405;50.576;12.364;2023-04-29T09:18:51;5.82;;;1.70;;
6735;SDS011;3405;50.576;12.364;2023-04-29T09:23:46;3.67;;;1.42;;
6735;SDS011;3405;50.576;12.364;2023-04-29T09:26:12;8.23;;;1.65;;
6735;SDS011;3405;50.576;12.364;2023-04-29T09:28:39;5.22;;;2.00;;
6735;SDS011;3405;50.576;12.364;2023-04-29T09:31:07;3.22;;;1.50;;
6735;SDS011;3405;50.576;12.364;2023-04-29T09:33:54;2.33;;;1.60;;
6735;SDS011;3405;50.576;12.364;2023-04-29T09:36:33;2.83;;;1.33;;
6735;SDS011;3405;50.576;12.364;2023-04-29T09:39:00;4.88;;;1.60;;
6735;SDS011;3405;50.576;12.364;2023-04-29T09:41:26;3.35;;;2.03;;
6735;SDS011;3405;50.576;12.364;2023-04-29T09:44:05;2.60;;;1.40;;
6735;SDS011;3405;50.576;12.364;2023-04-29T09:46:32;1.77;;;1.08;;
6735;SDS011;3405;50.576;12.364;2023-04-29T09:48:58;4.88;;;1.50;;
6735;SDS011;3405;50.576;12.364;2023-04-29T09:51:25;4.07;;;1.80;;
6735;SDS011;3405;50.576;12.364;2023-04-29T09:53:51;3.90;;;1.55;;
6735;SDS011;3405;50.576;12.364;2023-04-29T09:56:17;1.75;;;1.55;;
6735;SDS011;3405;50.576;12.364;2023-04-29T09:58:43;3.05;;;1.30;;
6735;SDS011;3405;50.576;12.364;2023-04-29T10:01:09;4.35;;;1.27;;
6735;SDS011;3405;50.576;12.364;2023-04-29T10:03:37;3.42;;;1.20;;
6735;SDS011;3405;50.576;12.364;2023-04-29T10:06:04;2.30;;;0.95;;
6735;SDS011;3405;50.576;12.364;2023-04-29T10:08:31;2.30;;;1.13;;
6735;SDS011;3405;50.576;12.364;2023-04-29T10:11:01;2.70;;;1.13;;
6735;SDS011;3405;50.576;12.364;2023-04-29T10:13:27;3.20;;;1.30;;
6735;SDS011;3405;50.576;12.364;2023-04-29T10:16:00;2.42;;;1.27;;
6735;SDS011;3405;50.576;12.364;2023-04-29T10:18:34;3.72;;;1.30;;
6735;SDS011;3405;50.576;12.364;2023-04-29T10:21:01;2.72;;;1.02;;
6735;SDS011;3405;50.576;12.364;2023-04-29T10:23:27;1.40;;;1.23;;
6735;SDS011;3405;50.576;12.364;2023-04-29T10:25:54;2.05;;;1.10;;
6735;SDS011;3405;50.576;12.364;2023-04-29T10:28:22;2.78;;;1.23;;
6735;SDS011;3405;50.576;12.364;2023-04-29T10:30:51;2.10;;;1.00;;
6735;SDS011;3405;50.576;12.364;2023-04-29T10:33:18;3.10;;;1.20;;
6735;SDS011;3405;50.576;12.364;2023-04-29T10:35:47;2.65;;;1.00;;
6735;SDS011;3405;50.576;12.364;2023-04-29T10:38:22;1.27;;;1.02;;
6735;SDS011;3405;50.576;12.364;2023-04-29T10:40:48;2.40;;;1.25;;
6735;SDS011;3405;50.576;12.364;2023-04-29T10:43:21;1.38;;;1.02;;
6735;SDS011;3405;50.576;12.364;2023-04-29T10:45:47;1.63;;;0.95;;
6735;SDS011;3405;50.576;12.364;2023-04-29T10:48:13;1.98;;;1.40;;
6735;SDS011;3405;50.576;12.364;2023-04-29T10:50:59;1.98;;;1.05;;
6735;SDS011;3405;50.576;12.364;2023-04-29T10:53:26;1.98;;;1.02;;
6735;SDS011;3405;50.576;12.364;2023-04-29T10:55:53;2.38;;;1.08;;
6735;SDS011;3405;50.576;12.364;2023-04-29T10:58:37;2.15;;;0.90;;
6735;SDS011;3405;50.576;12.364;2023-04-29T11:01:03;2.65;;;1.20;;
6735;SDS011;3405;50.576;12.364;2023-04-29T11:06:13;1.38;;;1.00;;
6735;SDS011;3405;50.576;12.364;2023-04-29T11:08:39;4.68;;;1.52;;
6735;SDS011;3405;50.576;12.364;2023-04-29T11:11:05;1.55;;;0.90;;
6735;SDS011;3405;50.576;12.364;2023-04-29T11:13:31;2.67;;;1.27;;
6735;SDS011;3405;50.576;12.364;2023-04-29T11:16:02;2.53;;;1.08;;
6735;SDS011;3405;50.576;12.364;2023-04-29T11:18:29;2.97;;;1.10;;
6735;SDS011;3405;50.576;12.364;2023-04-29T11:23:33;3.40;;;1.23;;
6735;SDS011;3405;50.576;12.364;2023-04-29T11:26:02;2.60;;;1.00;;
6735;SDS011;3405;50.576;12.364;2023-04-29T11:28:31;1.60;;;1.15;;
6735;SDS011;3405;50.576;12.364;2023-04-29T11:30:57;3.00;;;1.08;;
6735;SDS011;3405;50.576;12.364;2023-04-29T11:33:24;2.45;;;1.17;;
6735;SDS011;3405;50.576;12.364;2023-04-29T11:35:51;1.25;;;0.95;;
6735;SDS011;3405;50.576;12.364;2023-04-29T11:38:17;1.02;;;0.93;;
6735;SDS011;3405;50.576;12.364;2023-04-29T11:40:48;3.20;;;0.90;;
6735;SDS011;3405;50.576;12.364;2023-04-29T11:43:23;1.38;;;1.10;;
6735;SDS011;3405;50.576;12.364;2023-04-29T11:45:50;1.67;;;1.13;;
6735;SDS011;3405;50.576;12.364;2023-04-29T11:48:17;3.05;;;1.10;;
6735;SDS011;3405;50.576;12.364;2023-04-29T11:50:43;5.65;;;1.25;;
6735;SDS011;3405;50.576;12.364;2023-04-29T11:53:10;2.42;;;1.30;;
6735;SDS011;3405;50.576;12.364;2023-04-29T11:55:36;2.65;;;1.33;;
6735;SDS011;3405;50.576;12.364;2023-04-29T11:58:05;4.50;;;1.45;;
6735;SDS011;3405;50.576;12.364;2023-04-29T12:00:31;3.45;;;1.20;;
6735;SDS011;3405;50.576;12.364;2023-04-29T12:02:57;2.13;;;1.20;;
6735;SDS011;3405;50.576;12.364;2023-04-29T12:05:26;4.20;;;1.20;;
6735;SDS011;3405;50.576;12.364;2023-04-29T12:07:53;4.90;;;1.48;;
6735;SDS011;3405;50.576;12.364;2023-04-29T12:10:19;3.30;;;1.30;;
6735;SDS011;3405;50.576;12.364;2023-04-29T12:12:45;4.35;;;1.25;;
6735;SDS011;3405;50.576;12.364;2023-04-29T12:15:12;3.35;;;1.10;;
6735;SDS011;3405;50.576;12.364;2023-04-29T12:17:38;3.38;;;1.17;;
6735;SDS011;3405;50.576;12.364;2023-04-29T12:20:05;2.42;;;1.02;;
6735;SDS011;3405;50.576;12.364;2023-04-29T12:22:35;2.05;;;1.00;;
6735;SDS011;3405;50.576;12.364;2023-04-29T12:25:02;3.33;;;1.20;;
6735;SDS011;3405;50.576;12.364;2023-04-29T12:27:28;5.25;;;1.30;;
6735;SDS011;3405;50.576;12.364;2023-04-29T12:29:55;3.50;;;1.23;;
6735;SDS011;3405;50.576;12.364;2023-04-29T12:32:21;1.30;;;1.20;;
6735;SDS011;3405;50.576;12.364;2023-04-29T12:34:49;1.27;;;1.08;;
6735;SDS011;3405;50.576;12.364;2023-04-29T12:37:15;4.70;;;1.10;;
6735;SDS011;3405;50.576;12.364;2023-04-29T12:39:41;1.73;;;0.93;;
6735;SDS011;3405;50.576;12.364;2023-04-29T12:42:13;3.17;;;1.20;;
6735;SDS011;3405;50.576;12.364;2023-04-29T12:44:39;2.17;;;1.00;;
6735;SDS011;3405;50.576;12.364;2023-04-29T12:47:08;3.10;;;1.00;;
6735;SDS011;3405;50.576;12.364;2023-04-29T12:49:34;2.25;;;1.00;;
6735;SDS011;3405;50.576;12.364;2023-04-29T12:52:01;3.40;;;1.30;;
6735;SDS011;3405;50.576;12.364;2023-04-29T12:54:28;3.00;;;1.20;;
6735;SDS011;3405;50.576;12.364;2023-04-29T12:56:54;2.55;;;1.10;;
6735;SDS011;3405;50.576;12.364;2023-04-29T12:59:21;3.33;;;1.02;;
6735;SDS011;3405;50.576;12.364;2023-04-29T13:01:46;2.22;;;1.00;;
6735;SDS011;3405;50.576;12.364;2023-04-29T13:04:12;4.63;;;1.20;;
6735;SDS011;3405;50.576;12.364;2023-04-29T13:06:38;2.97;;;1.25;;
6735;SDS011;3405;50.576;12.364;2023-04-29T13:09:06;6.10;;;1.27;;
6735;SDS011;3405;50.576;12.364;2023-04-29T13:11:35;3.95;;;1.25;;
6735;SDS011;3405;50.576;12.364;2023-04-29T13:14:01;3.47;;;1.42;;
6735;SDS011;3405;50.576;12.364;2023-04-29T13:16:27;1.73;;;1.30;;
6735;SDS011;3405;50.576;12.364;2023-04-29T13:18:53;8.00;;;1.40;;
6735;SDS011;3405;50.576;12.364;2023-04-29T13:21:19;6.57;;;1.52;;
6735;SDS011;3405;50.576;12.364;2023-04-29T13:23:45;5.50;;;1.45;;
6735;SDS011;3405;50.576;12.364;2023-04-29T13:26:12;6.35;;;1.50;;
6735;SDS011;3405;50.576;12.364;2023-04-29T13:28:38;5.80;;;1.77;;
6735;SDS011;3405;50.576;12.364;2023-04-29T13:31:05;2.15;;;0.88;;
6735;SDS011;3405;50.576;12.364;2023-04-29T13:33:31;2.78;;;1.30;;
6735;SDS011;3405;50.576;12.364;2023-04-29T13:35:56;3.40;;;1.50;;
6735;SDS011;3405;50.576;12.364;2023-04-29T13:38:22;1.67;;;1.17;;
6735;SDS011;3405;50.576;12.364;2023-04-29T13:40:48;2.45;;;1.50;;
6735;SDS011;3405;50.576;12.364;2023-04-29T13:43:15;3.15;;;1.60;;
6735;SDS011;3405;50.576;12.364;2023-04-29T13:45:41;9.68;;;1.55;;
6735;SDS011;3405;50.576;12.364;2023-04-29T13:48:06;1.70;;;1.30;;
6735;SDS011;3405;50.576;12.364;2023-04-29T13:50:32;4.85;;;1.48;;
6735;SDS011;3405;50.576;12.364;2023-04-29T13:52:58;3.88;;;1.55;;
6735;SDS011;3405;50.576;12.364;2023-04-29T13:55:25;4.13;;;1.55;;
6735;SDS011;3405;50.576;12.364;2023-04-29T13:57:52;1.80;;;1.45;;
6735;SDS011;3405;50.576;12.364;2023-04-29T14:00:18;3.38;;;2.20;;
6735;SDS011;3405;50.576;12.364;2023-04-29T14:02:44;5.65;;;1.75;;
6735;SDS011;3405;50.576;12.364;2023-04-29T14:05:10;4.72;;;1.95;;
6735;SDS011;3405;50.576;12.364;2023-04-29T14:07:36;2.10;;;1.27;;
6735;SDS011;3405;50.576;12.364;2023-04-29T14:10:02;2.05;;;1.40;;
6735;SDS011;3405;50.576;12.364;2023-04-29T14:12:28;1.42;;;1.30;;
6735;SDS011;3405;50.576;12.364;2023-04-29T14:14:54;4.43;;;1.40;;
6735;SDS011;3405;50.576;12.364;2023-04-29T14:17:20;2.20;;;1.30;;
6735;SDS011;3405;50.576;12.364;2023-04-29T14:19:46;5.80;;;1.65;;
6735;SDS011;3405;50.576;12.364;2023-04-29T14:22:12;4.78;;;2.00;;
6735;SDS011;3405;50.576;12.364;2023-04-29T14:24:38;3.67;;;1.52;;
6735;SDS011;3405;50.576;12.364;2023-04-29T14:27:03;3.72;;;2.17;;
6735;SDS011;3405;50.576;12.364;2023-04-29T14:29:30;3.75;;;2.22;;
6735;SDS011;3405;50.576;12.364;2023-04-29T14:31:56;6.25;;;2.10;;
6735;SDS011;3405;50.576;12.364;2023-04-29T14:34:22;7.03;;;2.17;;
6735;SDS011;3405;50.576;12.364;2023-04-29T14:36:48;2.70;;;1.90;;
6735;SDS011;3405;50.576;12.364;2023-04-29T14:39:14;4.95;;;2.30;;
6735;SDS011;3405;50.576;12.364;2023-04-29T14:41:40;4.47;;;2.50;;
6735;SDS011;3405;50.576;12.364;2023-04-29T14:44:06;2.63;;;1.73;;
6735;SDS011;3405;50.576;12.364;2023-04-29T14:46:32;4.00;;;2.38;;
6735;SDS011;3405;50.576;12.364;2023-04-29T14:48:58;5.85;;;2.13;;
6735;SDS011;3405;50.576;12.364;2023-04-29T14:51:24;5.30;;;2.05;;
6735;SDS011;3405;50.576;12.364;2023-04-29T14:53:51;7.18;;;2.28;;
6735;SDS011;3405;50.576;12.364;2023-04-29T14:56:17;4.43;;;2.28;;
6735;SDS011;3405;50.576;12.364;2023-04-29T14:58:43;2.28;;;1.67;;
6735;SDS011;3405;50.576;12.364;2023-04-29T15:01:09;3.97;;;2.42;;
6735;SDS011;3405;50.576;12.364;2023-04-29T15:03:35;3.58;;;2.22;;
6735;SDS011;3405;50.576;12.364;2023-04-29T15:06:01;2.95;;;2.10;;
6735;SDS011;3405;50.576;12.364;2023-04-29T15:08:27;4.43;;;2.47;;
6735;SDS011;3405;50.576;12.364;2023-04-29T15:10:53;3.38;;;2.22;;
6735;SDS011;3405;50.576;12.364;2023-04-29T15:13:19;6.18;;;2.28;;